Time;durP1;ratioP1;P1;durP2;ratioP2;P2;SDS_P1;SDS_P2;PMS_P1;PMS_P2;Temp;Humidity;BMP_temperature;BMP_pressure;BME280_temperature;BME280_humidity;BME280_pressure;Samples;Min_cycle;Max_cycle;Signal;HPM_P1;HPM_P2
2022/03/25 00:01:38;;;;;;;45.72;27.13;;;4.00;70.50;;;;;;4985009;28;20112;-69
2022/03/25 00:04:04;;;;;;;48.95;27.45;;;4.00;70.50;;;;;;4978347;28;20033;-69
2022/03/25 00:06:30;;;;;;;46.58;27.10;;;3.90;70.00;;;;;;4989080;28;20034;-69
2022/03/25 00:08:56;;;;;;;46.65;26.48;;;3.90;70.10;;;;;;4979922;28;20018;-68
2022/03/25 00:11:21;;;;;;;49.50;26.38;;;3.80;70.00;;;;;;4970837;28;20122;-69
2022/03/25 00:13:47;;;;;;;46.30;26.10;;;3.80;70.00;;;;;;4990483;28;20054;-69
2022/03/25 00:16:13;;;;;;;47.67;27.23;;;3.70;70.10;;;;;;4981962;28;20027;-68
2022/03/25 00:18:39;;;;;;;44.30;26.48;;;3.70;70.20;;;;;;4991631;28;20023;-69
2022/03/25 00:21:05;;;;;;;45.58;26.58;;;3.70;70.30;;;;;;4981453;28;20030;-68
2022/03/25 00:23:31;;;;;;;48.67;26.55;;;3.70;70.20;;;;;;4985070;28;20338;-68
2022/03/25 00:25:57;;;;;;;49.83;26.92;;;3.70;70.20;;;;;;4986447;28;20417;-68
2022/03/25 00:28:22;;;;;;;45.17;27.20;;;3.70;70.50;;;;;;4992053;28;20093;-68
2022/03/25 00:30:49;;;;;;;46.80;26.30;;;3.60;70.70;;;;;;4979958;28;20022;-68
2022/03/25 00:33:16;;;;;;;49.80;25.77;;;3.60;70.90;;;;;;4986425;28;20537;-68
2022/03/25 00:35:42;;;;;;;49.47;27.58;;;3.60;70.90;;;;;;4988137;28;20052;-69
2022/03/25 00:38:08;;;;;;;47.78;26.17;;;3.50;71.30;;;;;;4982921;28;20082;-68
2022/03/25 00:40:33;;;;;;;50.58;25.55;;;3.50;71.30;;;;;;4977216;28;20192;-68
2022/03/25 00:42:59;;;;;;;45.50;25.80;;;3.50;71.20;;;;;;4977441;28;20023;-68
2022/03/25 00:45:25;;;;;;;47.58;26.70;;;3.40;71.20;;;;;;4991857;28;20018;-68
2022/03/25 00:47:51;;;;;;;48.92;25.98;;;3.40;71.40;;;;;;4992607;28;20050;-67
2022/03/25 00:50:19;;;;;;;46.15;24.95;;;3.40;72.00;;;;;;5000494;28;20050;-68
2022/03/25 00:52:44;;;;;;;46.47;25.10;;;3.30;71.90;;;;;;4987871;28;20018;-68
2022/03/25 00:55:10;;;;;;;48.45;27.10;;;3.50;72.10;;;;;;4991287;28;20055;-68
2022/03/25 00:57:36;;;;;;;41.90;24.50;;;3.50;71.90;;;;;;4983892;28;20426;-68
2022/03/25 01:00:04;;;;;;;45.13;25.50;;;3.40;71.20;;;;;;4986297;28;20038;-68
2022/03/25 01:02:30;;;;;;;46.20;24.52;;;3.30;71.40;;;;;;4996073;28;20049;-69
2022/03/25 01:04:55;;;;;;;45.30;25.95;;;3.30;71.40;;;;;;4985675;28;20046;-68
2022/03/25 01:07:21;;;;;;;51.80;28.13;;;3.30;72.00;;;;;;4991478;28;20442;-68
2022/03/25 01:09:47;;;;;;;39.35;24.25;;;3.20;72.40;;;;;;4993402;28;20433;-68
2022/03/25 01:12:12;;;;;;;48.95;25.20;;;3.30;73.30;;;;;;4986641;28;20082;-68
2022/03/25 01:14:39;;;;;;;43.50;25.55;;;3.30;72.10;;;;;;4999337;28;20452;-69
2022/03/25 01:17:04;;;;;;;45.13;25.60;;;3.20;72.10;;;;;;4980577;28;20027;-67
2022/03/25 01:19:30;;;;;;;48.75;24.73;;;3.10;72.00;;;;;;4988051;28;20081;-68
2022/03/25 01:21:56;;;;;;;45.13;25.13;;;3.10;72.30;;;;;;4991491;28;20113;-68
2022/03/25 01:24:22;;;;;;;45.15;24.73;;;3.00;72.40;;;;;;4982025;28;20023;-68
2022/03/25 01:26:48;;;;;;;40.60;24.58;;;3.10;72.90;;;;;;4992986;28;20034;-68
2022/03/25 01:29:14;;;;;;;47.58;24.42;;;3.10;72.30;;;;;;4990151;28;20078;-68
2022/03/25 01:31:40;;;;;;;44.35;24.60;;;3.00;72.60;;;;;;4973759;28;20031;-68
2022/03/25 01:34:06;;;;;;;44.78;23.33;;;3.00;72.80;;;;;;4982301;28;20027;-68
2022/03/25 01:36:31;;;;;;;43.30;23.52;;;3.00;72.80;;;;;;4996189;28;20018;-69
2022/03/25 01:38:58;;;;;;;48.13;25.33;;;3.00;73.20;;;;;;4985587;28;20026;-69
2022/03/25 01:41:24;;;;;;;43.38;24.50;;;3.00;73.00;;;;;;4973719;28;20027;-69
2022/03/25 01:44:00;;;;;;;41.90;23.40;;;3.00;73.10;;;;;;4993448;28;20486;-69
2022/03/25 01:46:26;;;;;;;46.55;24.55;;;2.90;73.20;;;;;;4982822;28;20042;-69
2022/03/25 01:48:53;;;;;;;46.13;24.48;;;2.90;72.90;;;;;;4991756;28;20029;-69
2022/03/25 01:51:28;;;;;;;46.70;26.10;;;2.80;73.40;;;;;;4997094;28;20031;-69
2022/03/25 01:53:59;;;;;;;48.22;25.42;;;2.80;73.60;;;;;;4996294;28;20050;-69
2022/03/25 01:56:24;;;;;;;45.50;25.30;;;2.80;74.10;;;;;;4999015;28;20029;-69
2022/03/25 01:58:50;;;;;;;47.60;24.75;;;2.70;74.00;;;;;;4983086;28;20293;-68
2022/03/25 02:01:16;;;;;;;46.55;24.70;;;2.60;74.20;;;;;;4989937;28;20051;-68
2022/03/25 02:03:42;;;;;;;44.92;25.60;;;2.70;74.90;;;;;;4979002;28;20046;-68
2022/03/25 02:06:07;;;;;;;44.22;24.63;;;2.70;74.90;;;;;;4993694;28;20049;-68
2022/03/25 02:08:33;;;;;;;44.10;25.58;;;2.60;74.70;;;;;;4981516;28;20395;-68
2022/03/25 02:10:59;;;;;;;42.55;24.88;;;2.60;74.80;;;;;;4991973;28;20029;-68
2022/03/25 02:13:25;;;;;;;42.83;23.63;;;2.60;74.60;;;;;;4986776;28;20022;-68
2022/03/25 02:15:50;;;;;;;43.70;23.48;;;2.50;74.40;;;;;;4970231;28;20478;-68
2022/03/25 02:18:20;;;;;;;46.58;25.17;;;2.50;74.20;;;;;;4998080;28;20123;-69
2022/03/25 02:20:47;;;;;;;45.03;24.38;;;2.50;74.20;;;;;;4953863;28;20092;-69
2022/03/25 02:23:14;;;;;;;45.88;24.10;;;2.40;74.40;;;;;;4992947;28;20086;-68
2022/03/25 02:25:41;;;;;;;45.83;25.42;;;2.30;74.60;;;;;;4984469;28;20509;-68
2022/03/25 02:28:07;;;;;;;46.38;24.42;;;2.30;74.50;;;;;;4994110;28;20057;-68
2022/03/25 02:30:34;;;;;;;45.15;23.92;;;2.30;74.80;;;;;;4984420;28;20023;-69
2022/03/25 02:33:01;;;;;;;44.00;24.33;;;2.30;75.00;;;;;;4990210;28;20504;-68
2022/03/25 02:35:43;;;;;;;42.67;23.08;;;2.20;75.00;;;;;;4991124;28;20034;-68
2022/03/25 02:38:11;;;;;;;49.10;26.00;;;2.20;75.10;;;;;;4995587;28;20030;-68
2022/03/25 02:40:37;;;;;;;46.05;25.13;;;2.10;75.10;;;;;;4966752;28;20401;-68
2022/03/25 02:43:04;;;;;;;48.97;25.38;;;2.10;75.00;;;;;;4991312;28;20025;-68
2022/03/25 02:45:29;;;;;;;43.58;24.00;;;2.10;75.20;;;;;;4983617;28;20026;-68
2022/03/25 02:47:59;;;;;;;44.08;25.02;;;2.10;75.40;;;;;;4979627;28;20045;-68
2022/03/25 02:50:25;;;;;;;46.38;24.63;;;2.00;75.60;;;;;;4977171;28;20030;-68
2022/03/25 02:52:50;;;;;;;43.50;24.50;;;2.00;75.80;;;;;;4988907;28;20023;-69
2022/03/25 02:55:16;;;;;;;47.28;26.30;;;2.00;75.80;;;;;;4984959;28;20021;-68
2022/03/25 02:57:42;;;;;;;47.65;25.40;;;2.00;76.00;;;;;;4985104;28;20056;-68
2022/03/25 03:00:09;;;;;;;48.38;23.70;;;2.00;76.10;;;;;;4991233;28;20030;-68
2022/03/25 03:02:35;;;;;;;48.30;25.45;;;1.90;75.90;;;;;;4979415;28;20026;-68
2022/03/25 03:05:01;;;;;;;45.80;24.88;;;1.90;76.00;;;;;;4987852;28;20054;-68
2022/03/25 03:07:27;;;;;;;40.17;23.98;;;1.90;76.30;;;;;;4974649;28;20026;-68
2022/03/25 03:09:52;;;;;;;40.40;23.35;;;1.80;76.40;;;;;;4987305;28;20030;-68
2022/03/25 03:12:18;;;;;;;44.97;24.20;;;1.80;76.40;;;;;;4977222;28;20054;-68
2022/03/25 03:14:44;;;;;;;41.80;23.42;;;1.80;76.50;;;;;;4989784;28;20023;-68
2022/03/25 03:17:11;;;;;;;47.00;25.73;;;1.70;76.60;;;;;;4981199;28;20027;-67
2022/03/25 03:19:36;;;;;;;43.70;25.38;;;1.70;76.80;;;;;;4982966;28;20118;-68
2022/03/25 03:22:02;;;;;;;42.00;23.23;;;1.70;76.70;;;;;;4987990;28;20061;-68
2022/03/25 03:24:28;;;;;;;43.53;22.98;;;1.60;77.00;;;;;;4977324;28;20085;-68
2022/03/25 03:26:53;;;;;;;45.10;24.38;;;1.60;77.10;;;;;;4988817;28;20048;-68
2022/03/25 03:29:20;;;;;;;46.58;25.20;;;1.50;77.30;;;;;;4984729;28;20391;-69
2022/03/25 03:31:46;;;;;;;39.53;23.88;;;1.50;77.40;;;;;;4968134;28;20037;-68
2022/03/25 03:34:12;;;;;;;39.55;23.05;;;1.50;77.50;;;;;;4977550;28;20035;-68
2022/03/25 03:36:38;;;;;;;44.20;24.40;;;1.50;77.70;;;;;;4972052;28;20394;-68
2022/03/25 03:39:04;;;;;;;42.83;24.88;;;1.50;77.60;;;;;;4979665;28;20019;-68
2022/03/25 03:41:29;;;;;;;45.40;24.63;;;1.50;77.80;;;;;;4982930;28;20019;-68
2022/03/25 03:43:55;;;;;;;50.28;27.23;;;1.40;78.30;;;;;;4986206;28;20034;-68
2022/03/25 03:46:20;;;;;;;50.60;27.30;;;1.50;78.60;;;;;;4975976;28;20414;-68
2022/03/25 03:48:46;;;;;;;50.58;26.38;;;1.40;78.70;;;;;;4988399;28;20394;-68
2022/03/25 03:51:11;;;;;;;51.70;27.80;;;1.40;78.80;;;;;;4980400;28;20487;-68
2022/03/25 03:53:37;;;;;;;51.55;27.50;;;1.40;79.20;;;;;;4981414;28;20026;-68
2022/03/25 03:56:03;;;;;;;50.42;28.17;;;1.40;79.40;;;;;;4969611;28;20026;-68
2022/03/25 03:58:29;;;;;;;45.03;25.50;;;1.40;79.40;;;;;;4975913;28;20035;-68
2022/03/25 04:00:54;;;;;;;46.30;25.40;;;1.30;79.30;;;;;;4987017;28;20478;-68
2022/03/25 04:03:20;;;;;;;49.50;27.10;;;1.30;79.30;;;;;;4981522;28;20497;-68
2022/03/25 04:05:45;;;;;;;53.83;27.75;;;1.30;79.20;;;;;;4980488;28;20023;-66
2022/03/25 04:08:11;;;;;;;46.33;25.42;;;1.20;79.50;;;;;;4987883;28;20464;-67
2022/03/25 04:10:37;;;;;;;48.17;25.45;;;1.10;79.70;;;;;;4976245;28;20027;-67
2022/03/25 04:13:02;;;;;;;47.95;26.13;;;1.10;79.90;;;;;;4968637;28;20375;-68
2022/03/25 04:15:28;;;;;;;48.80;26.55;;;1.10;80.00;;;;;;4982586;28;20026;-68
2022/03/25 04:17:54;;;;;;;49.70;26.77;;;1.10;80.20;;;;;;4979165;28;20541;-68
2022/03/25 04:20:19;;;;;;;48.55;26.50;;;1.10;80.70;;;;;;4971870;28;20401;-68
2022/03/25 04:22:45;;;;;;;52.00;27.42;;;1.10;80.40;;;;;;4980859;28;20073;-68
2022/03/25 04:25:13;;;;;;;46.25;26.50;;;1.10;80.40;;;;;;4988768;28;20080;-68
2022/03/25 04:28:05;;;;;;;51.65;27.13;;;1.10;80.50;;;;;;4986376;28;20018;-68
2022/03/25 04:30:32;;;;;;;47.00;25.48;;;1.10;80.40;;;;;;4962369;28;20086;-68
2022/03/25 04:32:59;;;;;;;49.13;26.75;;;1.10;80.60;;;;;;4990294;28;20011;-68
2022/03/25 04:35:25;;;;;;;46.47;26.15;;;1.10;81.00;;;;;;4985423;28;20034;-68
2022/03/25 04:37:52;;;;;;;46.78;26.10;;;1.00;80.90;;;;;;4982074;28;20030;-67
2022/03/25 04:40:20;;;;;;;55.60;28.13;;;1.00;81.00;;;;;;4992069;28;20557;-68
2022/03/25 04:42:47;;;;;;;49.38;26.15;;;1.00;81.30;;;;;;4979729;28;20379;-68
2022/03/25 04:45:13;;;;;;;45.67;25.58;;;1.00;81.40;;;;;;4987719;28;20019;-68
2022/03/25 04:47:39;;;;;;;53.13;26.33;;;1.00;81.10;;;;;;4985971;28;20161;-68
2022/03/25 04:50:05;;;;;;;47.92;26.58;;;1.00;81.10;;;;;;4980596;28;20030;-68
2022/03/25 04:52:31;;;;;;;43.60;24.40;;;1.00;81.20;;;;;;4974097;28;20030;-68
2022/03/25 04:54:57;;;;;;;50.30;25.02;;;0.90;81.30;;;;;;4981008;28;20014;-68
2022/03/25 04:57:22;;;;;;;52.05;27.67;;;1.00;81.40;;;;;;4985149;28;20692;-68
2022/03/25 04:59:48;;;;;;;51.35;26.70;;;1.00;81.30;;;;;;4987511;28;20026;-68
2022/03/25 05:02:14;;;;;;;52.95;27.98;;;1.10;81.30;;;;;;4979094;28;20462;-68
2022/03/25 05:04:39;;;;;;;44.05;25.30;;;1.00;80.90;;;;;;4991351;28;20029;-68
2022/03/25 05:07:05;;;;;;;48.15;25.40;;;1.00;81.00;;;;;;4960994;28;20055;-67
2022/03/25 05:09:31;;;;;;;48.88;24.33;;;1.10;80.90;;;;;;4978208;28;20102;-67
2022/03/25 05:11:56;;;;;;;57.15;26.20;;;1.20;80.60;;;;;;4988218;28;20027;-67
2022/03/25 05:14:22;;;;;;;46.13;25.00;;;1.10;80.40;;;;;;4978473;28;20027;-67
2022/03/25 05:16:52;;;;;;;48.53;25.23;;;1.20;80.40;;;;;;4990575;28;20033;-68
2022/03/25 05:19:21;;;;;;;47.10;25.02;;;1.30;80.30;;;;;;4982802;28;20022;-68
2022/03/25 05:21:47;;;;;;;47.42;25.08;;;1.50;80.30;;;;;;4964786;28;20048;-67
2022/03/25 05:24:12;;;;;;;44.88;24.25;;;1.90;79.60;;;;;;4990646;28;20023;-67
2022/03/25 05:26:38;;;;;;;42.22;23.17;;;2.50;77.60;;;;;;4978541;28;20033;-68
2022/03/25 05:29:05;;;;;;;40.28;22.17;;;3.20;76.10;;;;;;4987597;28;20487;-69
2022/03/25 05:31:30;;;;;;;48.00;23.02;;;3.90;73.10;;;;;;4984698;28;20053;-74
2022/03/25 05:33:56;;;;;;;38.30;21.30;;;4.60;70.20;;;;;;4980996;28;20395;-73
2022/03/25 05:36:22;;;;;;;35.85;19.98;;;5.30;67.70;;;;;;4991043;28;20038;-74
2022/03/25 05:38:48;;;;;;;38.15;21.75;;;6.00;64.20;;;;;;4978443;28;20042;-76
2022/03/25 05:41:14;;;;;;;38.30;22.42;;;6.50;62.70;;;;;;4983505;28;20375;-76
2022/03/25 05:43:40;;;;;;;35.80;21.35;;;7.10;59.60;;;;;;4965646;28;20031;-75
2022/03/25 05:46:05;;;;;;;36.50;20.73;;;7.50;58.60;;;;;;4972225;28;20034;-74
2022/03/25 05:48:31;;;;;;;40.17;23.33;;;8.00;56.10;;;;;;4975680;28;20030;-73
2022/03/25 05:50:57;;;;;;;34.58;22.40;;;8.40;55.20;;;;;;4986900;28;20038;-70
2022/03/25 05:53:22;;;;;;;38.05;21.77;;;9.00;52.80;;;;;;4981299;28;20014;-70
2022/03/25 05:55:48;;;;;;;37.58;21.00;;;8.60;52.40;;;;;;4962209;28;20106;-72
2022/03/25 05:58:14;;;;;;;36.10;22.98;;;8.40;53.20;;;;;;4987550;28;20038;-73
2022/03/25 06:00:40;;;;;;;40.15;21.75;;;7.50;55.20;;;;;;4959124;28;20033;-74
2022/03/25 06:03:06;;;;;;;34.63;20.65;;;7.00;57.20;;;;;;4989476;28;20033;-73
2022/03/25 06:05:34;;;;;;;29.42;18.63;;;7.40;58.50;;;;;;4985851;28;20034;-74
2022/03/25 06:08:00;;;;;;;28.92;17.63;;;8.70;53.30;;;;;;4986145;28;20099;-72
2022/03/25 06:10:26;;;;;;;28.73;17.05;;;9.50;50.30;;;;;;4997230;28;20065;-73
2022/03/25 06:12:51;;;;;;;28.83;17.63;;;10.50;47.40;;;;;;4983921;28;20018;-72
2022/03/25 06:15:17;;;;;;;29.08;16.65;;;11.60;44.30;;;;;;4989348;28;20394;-73
2022/03/25 06:17:44;;;;;;;30.90;17.77;;;;;;;;;;4986038;28;20034;-74
2022/03/25 06:20:12;;;;;;;30.15;17.05;;;;;;;;;;4979751;28;20031;-73
2022/03/25 06:22:39;;;;;;;29.38;17.35;;;13.40;39.00;;;;;;4990855;28;20100;-74
2022/03/25 06:25:07;;;;;;;28.27;17.50;;;13.60;39.10;;;;;;4964637;28;20026;-74
2022/03/25 06:27:32;;;;;;;26.17;18.48;;;14.50;37.70;;;;;;4989567;28;20033;-73
2022/03/25 06:30:04;;;;;;;29.38;18.35;;;15.00;36.50;;;;;;4963045;28;20019;-74
2022/03/25 06:32:30;;;;;;;29.63;19.08;;;15.90;34.60;;;;;;4974279;28;20516;-72
2022/03/25 06:34:56;;;;;;;31.52;17.85;;;15.80;33.90;;;;;;4981434;28;20027;-72
2022/03/25 06:37:21;;;;;;;31.55;20.10;;;16.00;33.50;;;;;;4989043;28;20052;-72
2022/03/25 06:39:47;;;;;;;33.30;19.10;;;16.30;33.80;;;;;;4992034;28;20030;-73
2022/03/25 06:42:13;;;;;;;35.00;19.20;;;16.50;32.70;;;;;;4996388;28;20053;-73
2022/03/25 06:44:38;;;;;;;32.15;19.42;;;17.00;31.90;;;;;;4977517;28;20026;-73
2022/03/25 06:47:04;;;;;;;27.80;18.02;;;16.20;32.70;;;;;;4988832;28;20363;-74
2022/03/25 06:49:30;;;;;;;30.20;17.17;;;16.10;33.30;;;;;;4983454;28;20040;-75
2022/03/25 06:51:57;;;;;;;30.02;18.38;;;16.90;32.10;;;;;;4982245;28;20065;-74
2022/03/25 06:54:32;;;;;;;30.40;19.35;;;17.40;31.70;;;;;;4988477;28;20510;-77
2022/03/25 06:56:58;;;;;;;31.33;20.48;;;17.60;30.90;;;;;;4970891;28;20030;-71
2022/03/25 06:59:23;;;;;;;30.30;20.48;;;17.80;30.30;;;;;;4981284;28;20018;-71
2022/03/25 07:01:49;;;;;;;30.80;21.20;;;18.00;30.20;;;;;;4982018;28;20106;-71
2022/03/25 07:04:15;;;;;;;29.23;19.90;;;18.50;29.90;;;;;;4987897;28;20033;-72
2022/03/25 07:06:44;;;;;;;26.98;20.30;;;18.90;30.00;;;;;;4976112;28;20114;-72
2022/03/25 07:09:10;;;;;;;30.38;21.33;;;19.40;29.00;;;;;;4986527;28;20487;-72
2022/03/25 07:11:36;;;;;;;38.25;22.30;;;19.70;27.90;;;;;;4982580;28;20041;-72
2022/03/25 07:14:02;;;;;;;33.00;21.70;;;18.80;28.50;;;;;;4979995;28;20038;-72
2022/03/25 07:16:27;;;;;;;34.05;21.55;;;16.80;31.50;;;;;;4989484;28;20026;-72
2022/03/25 07:18:55;;;;;;;36.70;22.05;;;15.30;33.90;;;;;;4958990;28;20109;-73
2022/03/25 07:21:21;;;;;;;32.55;22.45;;;13.60;37.40;;;;;;4985772;28;20517;-73
2022/03/25 07:23:47;;;;;;;33.38;22.08;;;12.70;39.50;;;;;;4978360;28;20038;-73
2022/03/25 07:26:12;;;;;;;34.55;22.90;;;14.10;38.20;;;;;;4965527;28;20050;-73
2022/03/25 07:28:38;;;;;;;36.33;20.88;;;15.00;35.70;;;;;;4996117;28;20022;-72
2022/03/25 07:31:05;;;;;;;34.47;22.35;;;15.70;34.80;;;;;;4978975;28;20023;-73
2022/03/25 07:33:30;;;;;;;35.30;23.98;;;16.70;33.40;;;;;;4985106;28;20027;-73
2022/03/25 07:35:56;;;;;;;36.40;22.38;;;17.80;31.40;;;;;;4985955;28;20027;-73
2022/03/25 07:38:22;;;;;;;33.70;23.48;;;18.10;31.10;;;;;;4975818;28;20359;-72
2022/03/25 07:40:47;;;;;;;29.95;22.15;;;17.90;31.10;;;;;;4976987;28;20034;-73
2022/03/25 07:43:13;;;;;;;37.08;22.10;;;17.50;31.70;;;;;;4988140;28;20095;-72
2022/03/25 07:45:41;;;;;;;33.08;23.25;;;16.90;32.60;;;;;;4983341;28;20110;-72
2022/03/25 07:48:07;;;;;;;38.13;24.88;;;16.50;34.00;;;;;;4979647;28;20568;-72
2022/03/25 07:50:33;;;;;;;38.60;23.90;;;15.00;35.50;;;;;;4997881;28;20513;-71
2022/03/25 07:52:58;;;;;;;36.28;24.05;;;14.30;37.20;;;;;;4982793;28;20049;-72
2022/03/25 07:55:25;;;;;;;41.50;25.45;;;13.30;39.20;;;;;;4972629;28;20131;-72
2022/03/25 07:57:50;;;;;;;43.92;26.65;;;12.60;40.80;;;;;;4970325;28;20046;-72
2022/03/25 08:00:16;;;;;;;45.20;26.20;;;12.30;41.80;;;;;;4989958;28;20023;-73
2022/03/25 08:02:48;;;;;;;46.15;26.67;;;12.60;41.70;;;;;;4980322;28;20126;-74
2022/03/25 08:05:14;;;;;;;42.53;23.95;;;12.70;41.10;;;;;;4988158;28;20023;-73
2022/03/25 08:07:55;;;;;;;39.33;24.50;;;13.00;40.50;;;;;;4983777;28;20030;-72
2022/03/25 08:10:23;;;;;;;40.22;23.42;;;13.20;39.90;;;;;;4977951;28;20023;-73
2022/03/25 08:12:49;;;;;;;38.97;24.02;;;13.40;39.60;;;;;;4971011;28;20053;-72
2022/03/25 08:15:15;;;;;;;37.63;23.02;;;14.10;38.20;;;;;;4972035;28;20097;-72
2022/03/25 08:17:49;;;;;;;40.67;22.55;;;14.20;38.00;;;;;;4963929;28;20643;-71
2022/03/25 08:20:20;;;;;;;35.10;21.00;;;14.90;37.30;;;;;;4978045;28;20031;-73
2022/03/25 08:22:46;;;;;;;43.50;22.92;;;15.80;35.60;;;;;;4988687;28;20026;-73
2022/03/25 08:28:00;;;;;;;36.97;23.63;;;16.10;34.30;;;;;;4979526;28;20086;-72
2022/03/25 08:30:26;;;;;;;45.85;24.65;;;16.80;33.60;;;;;;4970834;28;20386;-73
2022/03/25 08:32:52;;;;;;;41.95;26.35;;;16.70;33.50;;;;;;4955622;28;20032;-71
2022/03/25 08:35:17;;;;;;;39.33;24.42;;;16.70;33.20;;;;;;4985818;28;20035;-72
2022/03/25 08:37:43;;;;;;;39.08;23.75;;;17.20;33.80;;;;;;4964301;28;20103;-72
2022/03/25 08:40:09;;;;;;;38.28;25.25;;;17.70;33.00;;;;;;4978284;28;20046;-73
2022/03/25 08:42:35;;;;;;;35.17;24.58;;;18.50;30.80;;;;;;4987922;28;20065;-73
2022/03/25 08:45:00;;;;;;;38.85;25.48;;;18.90;29.70;;;;;;4976698;28;20501;-73
2022/03/25 08:47:26;;;;;;;41.53;24.58;;;19.10;29.50;;;;;;4983158;28;20046;-72
2022/03/25 08:49:51;;;;;;;38.03;24.33;;;19.40;29.80;;;;;;4980032;28;20031;-73
2022/03/25 08:52:20;;;;;;;41.88;25.55;;;20.10;28.90;;;;;;4985158;28;20134;-73
2022/03/25 08:54:47;;;;;;;41.65;24.58;;;20.40;27.70;;;;;;4974997;28;20043;-70
2022/03/25 08:57:12;;;;;;;36.17;24.52;;;19.60;27.90;;;;;;4984720;28;20038;-70
2022/03/25 08:59:38;;;;;;;43.63;24.80;;;19.00;30.30;;;;;;4981373;28;20031;-72
2022/03/25 09:02:03;;;;;;;41.97;24.60;;;19.10;29.50;;;;;;4978754;28;20387;-72
2022/03/25 09:04:31;;;;;;;41.78;24.20;;;19.40;28.10;;;;;;4988114;28;20339;-72
2022/03/25 09:06:57;;;;;;;42.58;24.95;;;19.00;28.50;;;;;;4959645;28;20038;-71
2022/03/25 09:09:23;;;;;;;34.55;22.40;;;19.00;29.10;;;;;;4981922;28;20363;-72
2022/03/25 09:11:49;;;;;;;45.63;24.83;;;19.50;28.50;;;;;;4984158;28;20085;-73
2022/03/25 09:14:15;;;;;;;37.28;23.73;;;19.50;26.70;;;;;;4989826;28;20026;-72
2022/03/25 09:16:41;;;;;;;38.83;24.88;;;19.30;27.30;;;;;;4978720;28;20034;-73
2022/03/25 09:19:06;;;;;;;43.20;24.60;;;18.40;28.00;;;;;;4988963;28;20029;-70
2022/03/25 09:21:32;;;;;;;44.40;24.10;;;17.90;29.00;;;;;;4966356;28;20113;-73
2022/03/25 09:23:57;;;;;;;43.92;24.45;;;17.60;29.10;;;;;;4980664;28;20035;-72
2022/03/25 09:26:25;;;;;;;45.08;24.67;;;18.20;28.90;;;;;;4987700;28;20467;-72
2022/03/25 09:28:50;;;;;;;39.38;23.08;;;18.30;29.00;;;;;;4960692;28;20118;-73
2022/03/25 09:31:16;;;;;;;38.33;23.30;;;18.80;29.50;;;;;;4994962;28;20503;-72
2022/03/25 09:33:41;;;;;;;40.65;23.70;;;18.50;28.20;;;;;;4985399;28;20031;-73
2022/03/25 09:36:07;;;;;;;41.05;22.75;;;18.00;28.50;;;;;;4988885;28;20026;-72
2022/03/25 09:38:33;;;;;;;38.25;23.20;;;18.00;29.10;;;;;;4977907;28;20102;-72
2022/03/25 09:41:03;;;;;;;37.45;21.90;;;17.50;28.50;;;;;;4980893;28;20084;-72
2022/03/25 09:43:29;;;;;;;35.95;22.27;;;17.50;29.80;;;;;;4986880;28;20030;-73
2022/03/25 09:45:54;;;;;;;41.45;23.95;;;17.70;29.10;;;;;;4987191;28;20018;-73
2022/03/25 09:48:20;;;;;;;43.97;27.23;;;18.00;28.20;;;;;;4979191;28;20031;-72
2022/03/25 09:50:46;;;;;;;35.70;22.63;;;17.80;30.30;;;;;;4992282;28;20034;-73
2022/03/25 09:53:11;;;;;;;36.40;22.25;;;18.20;29.30;;;;;;4981357;28;20033;-72
2022/03/25 09:55:42;;;;;;;33.95;21.10;;;18.20;29.60;;;;;;4995722;28;20116;-73
2022/03/25 09:58:11;;;;;;;34.53;22.75;;;18.40;30.60;;;;;;4980941;28;20118;-73
2022/03/25 10:00:36;;;;;;;35.42;23.73;;;18.50;28.20;;;;;;4968996;28;20102;-72
2022/03/25 10:03:03;;;;;;;36.00;22.85;;;18.40;27.60;;;;;;4990430;28;20510;-71
2022/03/25 10:05:28;;;;;;;37.20;23.52;;;17.20;28.80;;;;;;4966372;28;20132;-71
2022/03/25 10:07:55;;;;;;;36.22;23.40;;;16.50;30.10;;;;;;4983856;28;20027;-72
2022/03/25 10:10:26;;;;;;;41.10;22.02;;;16.50;30.10;;;;;;4991792;28;20030;-71
2022/03/25 10:13:07;;;;;;;38.78;22.05;;;16.70;31.00;;;;;;4980125;28;20014;-73
2022/03/25 10:15:37;;;;;;;36.35;21.40;;;16.90;31.10;;;;;;4968932;28;20027;-72
2022/03/25 10:18:04;;;;;;;33.60;21.42;;;17.00;31.50;;;;;;4987629;28;20025;-73
2022/03/25 10:20:29;;;;;;;37.25;22.65;;;16.60;30.60;;;;;;4978705;28;20089;-70
2022/03/25 10:23:10;;;;;;;36.72;21.23;;;16.20;31.40;;;;;;4991740;28;20022;-72
2022/03/25 10:25:48;;;;;;;35.90;23.35;;;15.40;30.90;;;;;;4985475;28;20018;-72
2022/03/25 10:28:27;;;;;;;38.00;21.75;;;15.20;31.40;;;;;;4979957;28;20086;-72
2022/03/25 10:31:02;;;;;;;39.10;21.58;;;15.00;32.90;;;;;;4962076;28;20442;-72
2022/03/25 10:33:35;;;;;;;45.47;21.77;;;14.90;33.50;;;;;;4969338;28;20426;-72
2022/03/25 10:36:09;;;;;;;38.70;20.30;;;15.00;32.40;;;;;;4986364;28;20038;-70
2022/03/25 10:38:43;;;;;;;36.30;20.42;;;14.80;32.10;;;;;;4976384;28;20030;-72
2022/03/25 10:41:10;;;;;;;43.03;22.20;;;14.50;33.40;;;;;;4965232;28;20037;-71
2022/03/25 10:44:03;;;;;;;31.45;16.90;;;14.80;34.60;;;;;;4967493;28;20023;-72
2022/03/25 10:46:51;;;;;;;29.48;16.85;;;14.60;32.30;;;;;;4989957;28;20026;-71
2022/03/25 10:49:20;;;;;;;30.42;16.10;;;14.60;34.00;;;;;;4979866;28;20014;-70
2022/03/25 10:52:00;;;;;;;32.67;16.20;;;14.80;33.50;;;;;;4973276;28;20039;-71
2022/03/25 10:54:27;;;;;;;34.92;20.55;;;15.00;34.30;;;;;;4977188;28;20035;-71
2022/03/25 10:56:59;;;;;;;33.65;19.75;;;14.90;33.30;;;;;;4944049;28;20022;-71
2022/03/25 10:59:25;;;;;;;37.22;19.08;;;15.00;33.00;;;;;;4968008;28;20050;-71
2022/03/25 11:01:56;;;;;;;29.50;17.42;;;14.80;32.60;;;;;;4985068;28;20522;-72
2022/03/25 11:04:22;;;;;;;38.08;18.55;;;14.70;34.10;;;;;;4978180;28;20090;-73
2022/03/25 11:06:48;;;;;;;29.02;18.20;;;15.00;34.60;;;;;;4989269;28;20057;-71
2022/03/25 11:09:15;;;;;;;32.45;18.08;;;15.10;33.60;;;;;;4962190;28;20022;-73
2022/03/25 11:11:43;;;;;;;38.42;19.67;;;15.10;33.10;;;;;;4983756;28;20085;-73
2022/03/25 11:14:09;;;;;;;33.50;17.17;;;14.90;32.70;;;;;;4986750;28;20019;-72
2022/03/25 11:16:42;;;;;;;36.95;17.75;;;14.60;33.70;;;;;;4976602;28;20491;-72
2022/03/25 11:19:09;;;;;;;31.63;18.05;;;14.90;36.50;;;;;;4987345;28;20518;-73
2022/03/25 11:21:40;;;;;;;33.30;17.92;;;14.60;33.40;;;;;;4982447;28;20114;-71
2022/03/25 11:24:11;;;;;;;31.45;16.58;;;14.80;35.60;;;;;;4979496;28;20030;-71
2022/03/25 11:26:40;;;;;;;29.92;15.38;;;14.90;34.80;;;;;;4989247;28;20026;-73
2022/03/25 11:29:11;;;;;;;32.13;17.23;;;15.10;35.40;;;;;;4977743;28;20101;-72
2022/03/25 11:32:04;;;;;;;26.80;16.77;;;15.20;34.60;;;;;;4983503;28;20031;-72
2022/03/25 11:34:30;;;;;;;30.73;16.90;;;15.10;33.30;;;;;;4989278;28;20030;-72
2022/03/25 11:37:15;;;;;;;33.67;16.23;;;15.00;35.00;;;;;;4976877;28;20477;-72
2022/03/25 11:39:40;;;;;;;30.13;16.55;;;15.10;34.60;;;;;;4965330;28;20034;-71
2022/03/25 11:42:07;;;;;;;29.45;15.90;;;15.40;33.90;;;;;;4986609;28;20029;-71
2022/03/25 11:44:33;;;;;;;27.52;14.60;;;15.40;35.10;;;;;;4976722;28;20410;-72
2022/03/25 11:46:59;;;;;;;28.27;14.40;;;15.50;34.80;;;;;;4988580;28;20022;-71
2022/03/25 11:49:32;;;;;;;25.13;12.60;;;15.50;35.00;;;;;;4981038;28;20018;-72
2022/03/25 11:52:27;;;;;;;30.90;14.65;;;15.50;34.40;;;;;;4980902;28;20053;-72
2022/03/25 11:55:01;;;;;;;27.42;13.60;;;15.50;32.80;;;;;;5014728;23;20040;-73
2022/03/25 11:57:32;;;;;;;30.67;14.98;;;15.60;32.90;;;;;;5032316;28;20108;-73
2022/03/25 12:00:17;;;;;;;27.38;14.90;;;15.20;33.30;;;;;;5032055;28;20095;-73
2022/03/25 12:03:03;;;;;;;31.30;16.48;;;15.30;36.40;;;;;;5031144;28;20025;-73
2022/03/25 12:05:28;;;;;;;34.20;16.02;;;15.30;33.70;;;;;;5031512;28;20041;-72
2022/03/25 12:08:29;;;;;;;31.45;17.85;;;15.10;33.70;;;;;;5030248;28;20532;-73
2022/03/25 12:10:55;;;;;;;34.80;15.90;;;15.00;33.90;;;;;;5012158;28;20393;-73
2022/03/25 12:13:23;;;;;;;35.38;17.77;;;15.00;35.90;;;;;;5030777;28;20355;-73
2022/03/25 12:15:52;;;;;;;32.42;19.10;;;15.30;35.80;;;;;;5031759;28;20396;-73
2022/03/25 12:18:46;;;;;;;28.33;17.10;;;15.50;35.60;;;;;;5032174;28;20048;-73
2022/03/25 12:21:18;;;;;;;30.52;18.20;;;15.60;35.90;;;;;;5017899;28;20052;-73
2022/03/25 12:23:58;;;;;;;31.50;17.38;;;15.60;34.30;;;;;;5030524;28;20480;-73
2022/03/25 12:26:37;;;;;;;31.85;16.75;;;15.70;34.50;;;;;;5031864;28;20076;-73
2022/03/25 12:29:06;;;;;;;32.72;17.98;;;15.70;33.60;;;;;;5016691;28;20500;-73
2022/03/25 12:31:32;;;;;;;30.55;17.05;;;15.60;33.90;;;;;;5032404;28;20033;-73
2022/03/25 12:34:03;;;;;;;32.80;18.90;;;15.60;36.40;;;;;;5031935;28;20117;-73
2022/03/25 12:36:52;;;;;;;31.15;17.17;;;15.40;34.00;;;;;;5031864;28;20018;-73
2022/03/25 12:39:17;;;;;;;29.70;16.77;;;15.30;35.00;;;;;;5031685;28;20125;-72